Time;durP1;ratioP1;P1;durP2;ratioP2;P2;SDS_P1;SDS_P2;PMS_P1;PMS_P2;Temp;Humidity;BMP_temperature;BMP_pressure;BME280_temperature;BME280_humidity;BME280_pressure;Samples;Min_cycle;Max_cycle;Signal;HPM_P1;HPM_P2
2023/01/05 00:01:20;;;;;;;38.30;29.10;;;;;;;10.71;89.14;100376.47;5092973;28;20219;-56
2023/01/05 00:03:47;;;;;;;42.60;30.93;;;;;;;10.72;88.57;100370.50;5092893;28;20187;-56
2023/01/05 00:06:17;;;;;;;45.67;31.60;;;;;;;10.78;88.77;100373.25;5092744;28;20194;-56
2023/01/05 00:08:45;;;;;;;43.80;31.90;;;;;;;10.30;88.28;100295.56;5093168;28;20187;-57
2023/01/05 00:22:31;;;;;;;39.63;30.30;;;;;;;10.72;88.61;100377.34;5092578;28;20194;-57
2023/01/05 00:24:58;;;;;;;45.00;30.37;;;;;;;10.76;88.53;100369.78;5093249;28;20289;-56
2023/01/05 00:27:25;;;;;;;52.73;29.90;;;;;;;10.65;89.06;100355.75;5092785;28;20190;-56
2023/01/05 00:29:54;;;;;;;44.33;30.13;;;;;;;10.49;88.95;100315.00;5092430;28;20186;-57
2023/01/05 00:32:21;;;;;;;36.30;28.47;;;;;;;10.79;88.72;100366.41;5092646;28;20191;-56
2023/01/05 00:34:49;;;;;;;43.93;30.23;;;;;;;10.77;88.79;100361.22;5098424;28;20182;-57
2023/01/05 00:37:16;;;;;;;40.47;30.17;;;;;;;10.77;89.30;100357.81;5113024;28;20190;-57
2023/01/05 00:39:43;;;;;;;38.80;28.60;;;;;;;10.61;89.28;100365.03;5113203;28;20298;-56
2023/01/05 00:42:10;;;;;;;36.20;29.17;;;;;;;10.62;89.63;100369.38;5112871;28;20190;-56
2023/01/05 00:44:36;;;;;;;38.03;29.37;;;;;;;10.62;89.94;100369.38;5113151;28;20186;-56
2023/01/05 00:47:05;;;;;;;41.33;29.90;;;;;;;10.56;89.48;100365.72;5112568;28;20191;-55
2023/01/05 00:49:31;;;;;;;37.90;30.07;;;;;;;10.53;89.85;100366.50;5112599;28;20194;-55
2023/01/05 00:51:59;;;;;;;50.30;31.20;;;;;;;10.46;90.60;100353.44;5111168;28;20657;-56
2023/01/05 00:54:26;;;;;;;39.23;30.53;;;;;;;10.47;90.23;100365.44;5112361;28;20205;-56
2023/01/05 00:56:52;;;;;;;46.50;31.23;;;;;;;10.49;90.48;100354.38;5112398;28;20222;-56
2023/01/05 00:59:19;;;;;;;42.50;30.87;;;;;;;10.47;90.30;100355.16;5112352;28;20187;-56
2023/01/05 01:01:47;;;;;;;44.00;32.73;;;;;;;10.41;90.91;100360.16;5112477;28;20182;-56
2023/01/05 01:04:15;;;;;;;46.77;33.73;;;;;;;10.41;90.58;100361.00;5112860;28;20194;-56
2023/01/05 01:06:42;;;;;;;45.03;33.93;;;;;;;10.38;90.82;100355.75;5112653;28;20598;-56
2023/01/05 01:09:10;;;;;;;49.60;33.90;;;;;;;10.40;91.37;100353.25;5112274;28;20186;-56
2023/01/05 01:11:37;;;;;;;50.90;41.25;;;;;;;10.45;91.32;100351.69;5112068;28;20427;-57
2023/01/05 01:14:04;;;;;;;48.37;36.03;;;;;;;10.50;90.71;100345.88;5112993;28;20194;-56
2023/01/05 01:16:31;;;;;;;53.03;39.13;;;;;;;10.53;90.28;100337.38;5112294;28;20194;-56
2023/01/05 01:18:58;;;;;;;52.30;39.73;;;;;;;10.58;90.65;100336.69;5112320;28;20186;-57
2023/01/05 01:21:26;;;;;;;52.80;38.50;;;;;;;10.58;90.21;100331.53;5112042;28;20213;-56
2023/01/05 01:23:53;;;;;;;52.30;40.73;;;;;;;10.43;89.77;100301.97;5112391;28;20653;-56
2023/01/05 01:26:21;;;;;;;53.03;40.50;;;;;;;10.57;89.72;100327.25;5112129;28;20218;-57
2023/01/05 01:28:48;;;;;;;54.40;40.37;;;;;;;10.57;89.90;100327.25;5112279;28;20190;-57
2023/01/05 01:31:15;;;;;;;66.57;40.10;;;;;;;10.58;89.45;100321.25;5112310;28;20194;-57
2023/01/05 01:33:42;;;;;;;48.10;38.43;;;;;;;10.61;89.75;100323.06;5112192;28;20671;-57
2023/01/05 01:36:10;;;;;;;48.60;36.47;;;;;;;10.63;89.36;100321.38;5112062;28;20220;-57
2023/01/05 01:38:38;;;;;;;45.10;35.37;;;;;;;10.56;89.95;100320.34;5112429;28;20194;-56
2023/01/05 01:41:05;;;;;;;51.30;37.23;;;;;;;10.50;90.00;100316.72;5112019;28;20210;-57
2023/01/05 01:43:45;;;;;;;42.63;32.23;;;;;;;10.42;90.57;100300.22;5112222;28;20280;-56
2023/01/05 01:46:12;;;;;;;47.47;37.83;;;;;;;10.48;90.34;100300.41;5111300;28;20495;-57
2023/01/05 01:48:43;;;;;;;41.77;33.63;;;;;;;10.47;90.09;100291.81;5112094;28;20196;-56
2023/01/05 01:51:16;;;;;;;42.33;32.67;;;;;;;10.43;90.05;100282.28;5112703;28;20197;-57
2023/01/05 01:53:47;;;;;;;42.37;31.50;;;;;;;10.54;89.21;100290.31;5112416;28;20213;-56
2023/01/05 01:56:17;;;;;;;40.80;30.73;;;;;;;10.44;89.25;100271.16;5112161;28;20218;-57
2023/01/05 01:58:45;;;;;;;41.50;29.63;;;;;;;10.54;89.48;100296.31;5111949;28;20599;-57
2023/01/05 02:01:12;;;;;;;45.67;31.17;;;;;;;10.51;89.08;100287.66;5112468;28;20214;-57
2023/01/05 02:03:39;;;;;;;44.77;31.80;;;;;;;9.77;89.60;100165.59;5112085;28;20679;-57
2023/01/05 02:06:06;;;;;;;44.77;30.90;;;;;;;10.49;89.28;100282.44;5115589;28;20564;-57
2023/01/05 02:08:34;;;;;;;46.60;33.17;;;;;;;10.43;89.57;100279.72;5115880;28;20273;-56
2023/01/05 02:11:38;;;;;;;44.57;34.37;;;;;;;10.43;89.16;100276.28;5115692;28;20198;-57
2023/01/05 02:14:15;;;;;;;43.70;32.70;;;;;;;10.28;89.28;100255.25;5115426;28;20671;-56
2023/01/05 02:16:53;;;;;;;48.57;33.20;;;;;;;10.35;89.45;100265.78;5115942;28;20262;-56
2023/01/05 02:19:54;;;;;;;43.63;32.27;;;;;;;10.35;89.70;100259.78;5115561;28;20194;-56
2023/01/05 02:22:45;;;;;;;45.63;32.73;;;;;;;10.32;89.74;100257.13;5081921;28;20190;-57
2023/01/05 02:25:32;;;;;;;43.30;31.70;;;;;;;10.31;89.73;100253.66;5115078;28;20239;-57
2023/01/05 02:28:12;;;;;;;40.57;31.13;;;;;;;10.25;90.35;100266.31;5115318;28;20189;-57
2023/01/05 02:31:01;;;;;;;40.13;29.07;;;;;;;10.23;90.07;100261.97;5115112;28;20199;-57
2023/01/05 02:33:37;;;;;;;39.77;31.10;;;;;;;10.24;90.39;100263.72;5115524;28;20255;-56
2023/01/05 02:36:11;;;;;;;39.03;30.67;;;;;;;10.25;90.51;100260.31;5115318;28;20190;-56
2023/01/05 02:38:46;;;;;;;39.70;31.40;;;;;;;10.23;90.92;100256.81;5115032;28;20644;-56
2023/01/05 02:41:20;;;;;;;43.37;32.70;;;;;;;10.20;90.71;100259.31;5115425;28;20274;-56
2023/01/05 02:43:47;;;;;;;41.73;32.60;;;;;;;10.18;90.93;100258.41;5115352;28;20189;-56
2023/01/05 02:46:15;;;;;;;46.00;33.97;;;;;;;10.15;90.99;100258.31;5114973;28;20441;-56
2023/01/05 02:48:45;;;;;;;45.60;33.80;;;;;;;10.01;91.14;100258.72;5114838;28;20187;-56
2023/01/05 02:51:17;;;;;;;50.17;34.97;;;;;;;9.98;91.48;100252.63;5114718;28;20691;-57
2023/01/05 02:53:49;;;;;;;43.57;33.43;;;;;;;9.87;91.75;100229.19;5115242;28;20187;-56
2023/01/05 02:56:21;;;;;;;42.10;33.23;;;;;;;9.89;92.07;100248.06;5115230;28;20222;-57
2023/01/05 02:58:52;;;;;;;48.30;33.33;;;;;;;9.91;92.36;100251.59;5115016;28;20194;-56
2023/01/05 03:01:27;;;;;;;50.73;34.07;;;;;;;9.92;91.41;100245.59;5114654;28;20584;-56
2023/01/05 03:03:58;;;;;;;42.93;32.37;;;;;;;9.88;91.90;100248.03;5114644;28;20276;-56
2023/01/05 03:06:29;;;;;;;42.33;32.90;;;;;;;9.83;91.93;100242.75;5114820;28;20190;-56
2023/01/05 03:09:00;;;;;;;49.20;34.07;;;;;;;9.73;92.56;100240.72;5114575;28;20222;-55
2023/01/05 03:14:23;;;;;;;45.13;36.10;;;;;;;9.76;92.70;100239.94;5114558;28;20251;-56
2023/01/05 03:16:55;;;;;;;50.13;35.70;;;;;;;9.75;92.91;100228.81;5114162;28;20665;-56
2023/01/05 03:19:38;;;;;;;46.83;36.57;;;;;;;9.62;92.85;100212.97;5114779;28;20572;-56
2023/01/05 03:36:13;;;;;;;53.37;37.67;;;;;;;9.50;93.81;100216.06;5114156;28;20233;-56
2023/01/05 03:38:43;;;;;;;52.33;39.67;;;;;;;9.53;94.30;100220.41;5114000;28;20664;-56
2023/01/05 03:41:14;;;;;;;51.47;40.10;;;;;;;9.53;94.14;100211.03;5113763;28;20626;-57
2023/01/05 03:43:42;;;;;;;51.43;39.47;;;;;;;9.55;94.10;100205.94;5114711;28;20194;-56
2023/01/05 03:46:13;;;;;;;50.27;38.30;;;;;;;9.56;93.97;100215.38;5113540;28;20194;-56
2023/01/05 03:48:42;;;;;;;46.07;37.83;;;;;;;9.57;94.03;100209.41;5114234;28;20191;-56
2023/01/05 03:51:09;;;;;;;48.73;37.83;;;;;;;9.58;94.13;100209.47;5113600;28;20190;-56
2023/01/05 03:53:36;;;;;;;53.00;39.17;;;;;;;9.48;94.26;100207.41;5113540;28;20182;-56
2023/01/05 03:56:03;;;;;;;54.93;42.00;;;;;;;9.47;94.75;100211.69;5112917;28;20490;-56
2023/01/05 03:58:30;;;;;;;56.57;40.10;;;;;;;9.43;94.62;100207.28;5114031;28;20620;-56
2023/01/05 04:00:56;;;;;;;49.97;39.40;;;;;;;9.43;95.09;100199.59;5113174;28;20688;-56
2023/01/05 04:03:23;;;;;;;54.13;40.17;;;;;;;9.38;95.13;100202.81;5113267;28;20503;-56
2023/01/05 04:05:51;;;;;;;51.00;38.63;;;;;;;9.40;95.22;100201.19;5113283;28;20190;-56
2023/01/05 04:08:18;;;;;;;54.67;39.60;;;;;;;9.38;95.43;100195.13;5113687;28;20186;-56
2023/01/05 04:10:45;;;;;;;46.77;38.40;;;;;;;9.36;95.29;100195.09;5113207;28;20634;-56
2023/01/05 04:13:12;;;;;;;48.43;38.20;;;;;;;9.24;96.01;100197.25;5111887;28;20194;-56
2023/01/05 04:15:40;;;;;;;48.10;38.33;;;;;;;9.26;96.45;100193.03;5112937;28;20198;-56
2023/01/05 04:18:07;;;;;;;48.53;38.40;;;;;;;9.24;96.10;100193.81;5113047;28;20652;-56
2023/01/05 04:20:33;;;;;;;50.43;38.53;;;;;;;9.22;96.23;100186.09;5113427;28;20244;-56
2023/01/05 04:23:01;;;;;;;53.23;40.20;;;;;;;9.23;96.41;100182.69;5113032;28;20193;-56
2023/01/05 04:25:28;;;;;;;55.60;41.43;;;;;;;9.22;96.49;100174.94;5113023;28;20190;-55
2023/01/05 04:27:55;;;;;;;55.37;39.03;;;;;;;9.26;96.67;100182.78;5113201;28;20189;-56
2023/01/05 04:30:22;;;;;;;54.83;40.93;;;;;;;9.33;96.35;100179.59;5112794;28;20200;-56
2023/01/05 04:32:49;;;;;;;52.37;39.83;;;;;;;9.36;96.13;100173.69;5113095;28;20548;-56
2023/01/05 04:35:15;;;;;;;54.80;39.60;;;;;;;9.40;95.61;100185.78;5112964;28;20190;-56
2023/01/05 04:37:42;;;;;;;57.00;40.57;;;;;;;9.40;95.69;100178.97;5112721;28;20190;-56
2023/01/05 04:40:11;;;;;;;50.27;38.90;;;;;;;9.41;95.79;100184.97;5113080;28;20186;-56
2023/01/05 04:42:38;;;;;;;51.90;36.80;;;;;;;9.34;95.71;100178.78;5112777;28;20221;-56
2023/01/05 04:45:06;;;;;;;49.23;38.63;;;;;;;9.31;96.29;100167.56;5112925;28;20186;-56
2023/01/05 04:47:32;;;;;;;49.43;38.73;;;;;;;9.29;96.22;100172.63;5112843;28;20182;-56
2023/01/05 04:49:59;;;;;;;50.47;37.40;;;;;;;9.27;96.42;100183.66;5112575;28;20195;-56
2023/01/05 04:52:26;;;;;;;49.57;36.83;;;;;;;9.25;96.67;100180.19;5112498;28;20191;-56
2023/01/05 04:54:53;;;;;;;50.40;36.47;;;;;;;9.23;97.20;100166.44;5113110;28;20185;-56
2023/01/05 04:57:21;;;;;;;49.57;38.00;;;;;;;9.23;97.38;100169.84;5112294;28;20218;-56
2023/01/05 04:59:48;;;;;;;54.17;37.70;;;;;;;9.24;97.30;100168.16;5112461;28;20196;-56
2023/01/05 05:02:15;;;;;;;53.90;39.23;;;;;;;9.25;97.59;100159.66;5112621;28;20277;-56
2023/01/05 05:04:41;;;;;;;52.27;39.10;;;;;;;9.18;97.44;100156.03;5112500;28;20186;-55
2023/01/05 05:07:08;;;;;;;54.72;45.67;;;;;;;9.26;97.59;100152.00;5110960;28;20446;-56
2023/01/05 05:09:35;;;;;;;55.20;40.00;;;;;;;9.31;96.92;100158.16;5112870;28;20182;-57
2023/01/05 05:12:02;;;;;;;56.10;39.43;;;;;;;9.31;96.24;100149.63;5112224;28;20198;-56
2023/01/05 05:14:30;;;;;;;56.50;40.37;;;;;;;9.29;95.97;100158.94;5112431;28;20209;-57
2023/01/05 05:16:56;;;;;;;50.23;38.07;;;;;;;9.20;96.41;100156.09;5112453;28;20189;-57
2023/01/05 05:19:23;;;;;;;50.80;38.57;;;;;;;9.19;96.86;100154.34;5112406;28;20190;-56
2023/01/05 05:21:50;;;;;;;51.87;38.23;;;;;;;9.12;96.59;100154.97;5112485;28;20218;-56
2023/01/05 05:24:17;;;;;;;53.43;39.73;;;;;;;9.08;97.70;100160.81;5112168;28;20652;-56
2023/01/05 05:26:44;;;;;;;54.87;40.90;;;;;;;9.06;97.70;100157.34;5112687;28;20251;-56
2023/01/05 05:29:10;;;;;;;61.53;43.57;;;;;;;8.99;98.04;100163.06;5112351;28;20213;-56
2023/01/05 05:31:38;;;;;;;60.13;41.17;;;;;;;9.00;98.33;100152.88;5112215;28;20194;-56
2023/01/05 05:34:05;;;;;;;55.40;41.90;;;;;;;9.00;98.05;100150.31;5112107;28;20182;-56
2023/01/05 05:36:34;;;;;;;56.97;41.23;;;;;;;8.98;98.00;100146.84;5112150;28;20186;-56
2023/01/05 05:39:01;;;;;;;59.40;41.97;;;;;;;9.00;98.05;100145.19;5112809;28;20667;-57
2023/01/05 05:41:28;;;;;;;56.27;42.53;;;;;;;8.99;97.90;100145.13;5115763;28;20224;-56
2023/01/05 05:43:59;;;;;;;64.50;44.77;;;;;;;9.01;97.89;100138.38;5115890;28;20664;-57
2023/01/05 05:46:26;;;;;;;59.30;44.13;;;;;;;8.99;97.93;100132.31;5116001;28;20193;-56
2023/01/05 05:48:55;;;;;;;58.60;42.17;;;;;;;8.82;98.41;100121.50;5115842;28;20273;-56
2023/01/05 05:51:23;;;;;;;68.90;47.13;;;;;;;8.95;98.57;100141.59;5116622;28;20202;-56
2023/01/05 05:53:50;;;;;;;59.23;44.70;;;;;;;8.95;98.58;100141.59;5116231;28;20569;-56
2023/01/05 05:56:17;;;;;;;57.10;42.30;;;;;;;8.92;98.82;100138.06;5115462;28;20229;-57
2023/01/05 05:58:44;;;;;;;57.83;43.73;;;;;;;8.93;98.88;100139.81;5115652;28;20668;-56
2023/01/05 06:01:11;;;;;;;58.43;44.70;;;;;;;8.90;99.04;100133.75;5115503;28;20228;-56
2023/01/05 06:03:37;;;;;;;60.43;44.07;;;;;;;8.89;99.21;100133.72;5115443;28;20202;-57
2023/01/05 06:06:06;;;;;;;62.93;43.63;;;;;;;8.93;99.50;100142.38;5115330;28;20197;-56
2023/01/05 06:08:33;;;;;;;57.57;41.80;;;;;;;8.91;99.70;100142.31;5115244;28;20182;-57
2023/01/05 06:11:00;;;;;;;55.27;41.93;;;;;;;8.89;99.79;100136.28;5114835;28;20262;-56
2023/01/05 06:13:27;;;;;;;58.03;44.40;;;;;;;8.88;99.94;100140.53;5114008;28;20190;-57
2023/01/05 06:15:54;;;;;;;59.60;43.20;;;;;;;8.95;99.75;100158.69;5115210;28;20190;-57
2023/01/05 06:18:21;;;;;;;59.83;43.90;;;;;;;8.94;99.76;100141.53;5115176;28;20629;-56
2023/01/05 06:20:47;;;;;;;60.87;43.60;;;;;;;8.96;99.67;100145.00;5115013;28;20186;-57
2023/01/05 06:23:16;;;;;;;66.88;50.03;;;;;;;8.98;99.81;100151.09;5114374;28;20932;-56
2023/01/05 06:25:44;;;;;;;67.43;46.37;;;;;;;9.04;98.74;100153.88;5115706;28;20186;-56
2023/01/05 06:28:11;;;;;;;60.70;43.47;;;;;;;9.07;98.94;100153.94;5114991;28;20602;-56
2023/01/05 06:30:37;;;;;;;59.03;44.63;;;;;;;9.08;98.67;100156.56;5114598;28;20197;-57
2023/01/05 06:33:04;;;;;;;68.23;46.23;;;;;;;9.11;97.81;100150.66;5114519;28;20679;-57
2023/01/05 06:35:31;;;;;;;74.97;51.33;;;;;;;9.06;97.76;100147.09;5114813;28;20201;-57
2023/01/05 06:37:58;;;;;;;70.27;48.60;;;;;;;9.13;97.93;100144.75;5113579;28;20194;-57
2023/01/05 06:40:26;;;;;;;78.53;51.10;;;;;;;9.20;97.33;100140.72;5107076;28;20190;-57
2023/01/05 06:42:53;;;;;;;74.43;51.43;;;;;;;9.40;98.29;100140.50;5106776;28;20224;-56
2023/01/05 06:45:20;;;;;;;76.87;49.53;;;;;;;10.18;97.51;100140.28;5114201;28;20198;-56
2023/01/05 06:47:47;;;;;;;66.97;48.03;;;;;;;10.22;92.96;100134.41;5114441;28;20187;-56
2023/01/05 06:50:13;;;;;;;65.32;45.30;;;;;;;10.11;91.16;100131.47;5114666;28;20434;-57
2023/01/05 06:52:40;;;;;;;67.97;49.33;;;;;;;10.12;91.35;100125.53;5114476;28;20190;-56
2023/01/05 06:55:08;;;;;;;68.80;45.77;;;;;;;10.42;91.43;100123.84;5114420;28;20191;-57
2023/01/05 06:57:37;;;;;;;67.80;49.60;;;;;;;10.78;88.70;100117.91;5114410;28;20234;-56
2023/01/05 07:00:05;;;;;;;67.47;47.20;;;;;;;10.67;86.56;100127.91;5114151;28;20190;-56
2023/01/05 07:02:32;;;;;;;59.07;44.73;;;;;;;10.45;87.41;100123.91;5114208;28;20221;-57
2023/01/05 07:04:59;;;;;;;62.30;46.93;;;;;;;10.20;88.39;100128.34;5114112;28;20189;-57
2023/01/05 07:07:26;;;;;;;66.37;48.57;;;;;;;10.05;89.24;100124.47;5114347;28;20240;-57
2023/01/05 07:09:52;;;;;;;68.53;45.67;;;;;;;9.95;90.21;100124.19;5114060;28;20193;-57
2023/01/05 07:12:19;;;;;;;67.57;48.87;;;;;;;9.78;90.97;100095.47;5112624;28;20239;-58
2023/01/05 07:14:47;;;;;;;66.83;48.63;;;;;;;10.11;90.81;100115.22;5104362;28;20190;-57
2023/01/05 07:17:14;;;;;;;64.03;48.83;;;;;;;10.17;90.12;100110.28;5093603;28;20240;-57
2023/01/05 07:19:41;;;;;;;66.27;48.07;;;;;;;10.14;90.43;100099.91;5093850;28;20573;-57
2023/01/05 07:22:08;;;;;;;67.83;48.80;;;;;;;10.07;90.07;100098.88;5093555;28;20229;-57
2023/01/05 07:24:35;;;;;;;63.13;47.43;;;;;;;10.07;90.59;100094.59;5093485;28;20244;-56
2023/01/05 07:27:02;;;;;;;66.40;49.77;;;;;;;10.01;90.85;100089.28;5093358;28;20248;-57
2023/01/05 07:29:29;;;;;;;63.03;47.80;;;;;;;10.04;90.51;100080.81;5098857;28;20262;-57
2023/01/05 07:31:57;;;;;;;62.47;45.57;;;;;;;10.00;90.51;100081.53;5111440;28;20194;-57
2023/01/05 07:34:24;;;;;;;57.23;42.33;;;;;;;9.92;90.26;100076.19;5113991;28;20194;-57
2023/01/05 07:36:51;;;;;;;52.63;39.80;;;;;;;9.90;89.69;100077.84;5113518;28;20250;-57
2023/01/05 07:39:18;;;;;;;53.77;41.20;;;;;;;9.88;89.93;100078.66;5113216;28;20618;-57
2023/01/05 07:41:45;;;;;;;56.23;40.60;;;;;;;9.86;89.66;100080.31;5113599;28;20217;-57
2023/01/05 07:44:12;;;;;;;57.70;43.17;;;;;;;9.89;89.65;100076.09;5111277;28;20190;-57
2023/01/05 07:46:39;;;;;;;58.40;40.80;;;;;;;9.87;90.16;100075.19;5113243;28;20618;-56
2023/01/05 07:49:07;;;;;;;57.07;41.27;;;;;;;9.92;89.89;100068.50;5113086;28;20718;-57
2023/01/05 07:51:34;;;;;;;52.80;39.43;;;;;;;9.91;89.04;100053.06;5113041;28;20197;-57
2023/01/05 07:54:01;;;;;;;59.23;41.30;;;;;;;10.02;88.58;100067.06;5113219;28;20218;-56
2023/01/05 07:56:28;;;;;;;63.07;43.67;;;;;;;10.01;88.44;100066.19;5112934;28;20214;-57
2023/01/05 07:58:54;;;;;;;55.03;41.43;;;;;;;9.92;88.33;100060.78;5113079;28;20191;-57
2023/01/05 08:01:21;;;;;;;50.83;38.53;;;;;;;9.96;88.59;100066.88;5102213;28;20198;-57
2023/01/05 08:03:48;;;;;;;55.43;37.50;;;;;;;10.00;88.23;100053.28;5096168;28;20633;-56
2023/01/05 08:06:18;;;;;;;54.33;38.50;;;;;;;10.10;88.13;100050.16;5112915;28;20198;-56
2023/01/05 08:08:46;;;;;;;51.47;37.63;;;;;;;10.14;87.25;100044.31;5113085;28;20705;-56
2023/01/05 08:11:15;;;;;;;56.37;38.33;;;;;;;10.24;86.75;100051.44;5113129;28;20194;-56
2023/01/05 08:14:01;;;;;;;54.17;37.70;;;;;;;10.24;86.34;100059.16;5113056;28;20194;-56
2023/01/05 08:16:28;;;;;;;48.90;36.03;;;;;;;10.29;85.83;100054.13;5112666;28;20186;-57
2023/01/05 08:18:55;;;;;;;58.27;36.10;;;;;;;10.33;85.46;100037.97;5112954;28;20674;-57
2023/01/05 08:21:23;;;;;;;52.93;37.77;;;;;;;10.40;85.37;100035.59;5112691;28;20201;-57
2023/01/05 08:23:52;;;;;;;49.83;38.47;;;;;;;10.32;84.75;100021.69;5112258;28;20218;-57
2023/01/05 08:26:21;;;;;;;52.07;38.73;;;;;;;10.49;85.09;100034.97;5105748;28;20193;-58
2023/01/05 08:28:48;;;;;;;53.07;39.27;;;;;;;10.56;84.45;100026.56;5112704;28;20194;-56
2023/01/05 08:31:18;;;;;;;58.60;39.83;;;;;;;10.58;84.89;100027.47;5112836;28;20534;-57
2023/01/05 08:33:45;;;;;;;55.23;41.73;;;;;;;10.62;84.21;100024.16;5108989;27;20193;-56
2023/01/05 08:36:15;;;;;;;50.57;39.33;;;;;;;10.51;84.25;100016.19;5109231;28;20190;-57
2023/01/05 08:38:47;;;;;;;52.93;39.90;;;;;;;10.32;84.83;99975.47;5109370;28;20205;-57
2023/01/05 08:41:19;;;;;;;48.47;37.20;;;;;;;10.57;84.01;100002.63;5112096;28;20687;-57
2023/01/05 08:43:50;;;;;;;54.80;40.97;;;;;;;10.71;84.11;99995.25;5107083;28;20296;-57
2023/01/05 08:46:17;;;;;;;58.40;39.87;;;;;;;10.72;83.68;99968.69;5112894;28;20202;-57
2023/01/05 08:48:44;;;;;;;58.77;39.23;;;;;;;10.94;83.25;99981.19;5111969;28;20194;-57
2023/01/05 08:51:11;;;;;;;54.10;38.93;;;;;;;11.07;82.21;99980.66;5112729;28;20194;-56
2023/01/05 08:53:37;;;;;;;80.20;41.83;;;;;;;11.19;82.03;99975.75;5111825;28;20208;-56
2023/01/05 08:56:06;;;;;;;51.97;38.03;;;;;;;11.29;80.84;99975.09;5112226;28;20202;-56
2023/01/05 08:58:33;;;;;;;52.80;37.67;;;;;;;11.32;79.70;99971.75;5110624;28;20652;-56
2023/01/05 09:01:00;;;;;;;55.17;38.50;;;;;;;11.41;79.80;99967.66;5112157;28;20675;-57
2023/01/05 09:03:27;;;;;;;45.87;37.17;;;;;;;11.49;79.89;99962.66;5111850;28;20222;-56
2023/01/05 09:05:58;;;;;;;52.97;37.67;;;;;;;11.59;79.06;99960.28;5111964;28;20336;-56
2023/01/05 09:08:24;;;;;;;46.30;36.90;;;;;;;11.67;78.14;99950.16;5112169;28;20217;-56
2023/01/05 09:10:51;;;;;;;54.07;36.77;;;;;;;11.78;77.64;99948.69;5111886;28;20186;-56
2023/01/05 09:13:19;;;;;;;53.10;34.90;;;;;;;11.86;76.87;99949.69;5113480;28;20194;-56
2023/01/05 09:15:46;;;;;;;54.33;36.30;;;;;;;11.93;76.16;99946.38;5116127;28;20188;-56
2023/01/05 09:18:13;;;;;;;45.00;33.43;;;;;;;12.04;75.41;99949.13;5115943;28;20194;-57
2023/01/05 09:20:40;;;;;;;43.30;34.13;;;;;;;12.06;74.67;99939.75;5116055;28;20228;-56
2023/01/05 09:23:06;;;;;;;47.03;34.17;;;;;;;12.03;74.78;99937.97;5115803;27;20213;-56
2023/01/05 09:25:33;;;;;;;50.40;34.73;;;;;;;12.09;74.83;99927.78;5118260;27;20186;-56
2023/01/05 09:28:00;;;;;;;48.07;33.87;;;;;;;12.15;74.17;99925.31;5116118;28;20244;-56
2023/01/05 09:30:28;;;;;;;36.67;28.60;;;;;;;12.22;71.83;99926.28;5114551;27;20192;-57
2023/01/05 09:32:55;;;;;;;43.37;31.20;;;;;;;12.26;71.42;99913.47;5116217;28;20194;-57
2023/01/05 09:35:22;;;;;;;33.87;24.90;;;;;;;12.29;69.83;99905.78;5116322;28;20245;-56
2023/01/05 09:37:49;;;;;;;39.17;26.47;;;;;;;12.29;69.55;99908.38;5115699;28;20289;-56
2023/01/05 09:40:15;;;;;;;34.03;25.27;;;;;;;12.38;69.36;99897.34;5115900;28;20191;-56
2023/01/05 09:42:45;;;;;;;39.77;28.27;;;;;;;12.44;69.38;99893.13;5115783;28;20688;-56
2023/01/05 09:45:16;;;;;;;33.83;26.53;;;;;;;12.54;68.40;99886.41;5115662;28;20615;-57
2023/01/05 09:47:45;;;;;;;40.03;31.92;;;;;;;12.62;68.77;99882.22;5113957;28;20836;-57
2023/01/05 09:50:20;;;;;;;40.77;27.90;;;;;;;12.69;67.64;99875.47;5114834;28;20211;-57
2023/01/05 09:52:47;;;;;;;118.20;34.60;;;;;;;12.78;66.89;99865.25;5115579;28;20241;-57
2023/01/05 09:55:17;;;;;;;35.53;26.27;;;;;;;12.76;66.99;99852.34;5100406;28;20252;-57
2023/01/05 09:57:54;;;;;;;33.37;24.37;;;;;;;12.95;65.90;99858.59;5098520;28;20231;-56
2023/01/05 10:00:23;;;;;;;35.07;25.43;;;;;;;13.00;65.74;99850.06;5095546;28;20255;-57
2023/01/05 10:02:55;;;;;;;33.87;25.53;;;;;;;12.95;65.26;99840.56;5094775;28;20218;-57
2023/01/05 10:05:23;;;;;;;34.60;24.93;;;;;;;13.01;65.01;99827.75;5092897;28;20316;-57
2023/01/05 10:07:53;;;;;;;29.73;23.63;;;;;;;13.07;64.84;99825.28;5093360;28;20690;-56
2023/01/05 10:10:42;;;;;;;30.60;23.77;;;;;;;13.13;63.98;99822.72;5094105;28;20538;-55
2023/01/05 10:13:20;;;;;;;29.80;23.07;;;;;;;13.08;64.32;99785.72;5094346;28;20183;-56
2023/01/05 10:15:51;;;;;;;26.30;20.10;;;;;;;13.09;62.80;99777.13;5093679;28;20187;-56
2023/01/05 10:18:22;;;;;;;29.57;21.83;;;;;;;13.08;63.69;99790.88;5094186;28;20190;-56
2023/01/05 10:21:02;;;;;;;29.17;21.53;;;;;;;13.18;63.16;99787.56;5094698;28;20194;-57
2023/01/05 10:23:59;;;;;;;38.03;22.70;;;;;;;13.23;63.06;99772.97;5094660;28;20214;-57
2023/01/05 10:26:31;;;;;;;26.73;19.57;;;;;;;13.27;61.46;99774.72;5079826;28;20649;-57
2023/01/05 10:29:03;;;;;;;30.07;22.07;;;;;;;13.24;62.04;99779.84;5093998;28;20608;-57
2023/01/05 10:31:44;;;;;;;30.63;20.23;;;;;;;13.27;61.42;99769.56;5094720;28;20245;-57
2023/01/05 10:34:21;;;;;;;27.33;20.83;;;;;;;13.32;61.38;99764.47;5094740;28;20198;-56
2023/01/05 10:37:07;;;;;;;27.97;20.57;;;;;;;13.34;61.56;99763.63;5094746;28;20191;-56
2023/01/05 10:39:52;;;;;;;26.10;21.03;;;;;;;13.38;61.71;99749.88;5094339;28;20226;-57
2023/01/05 10:42:29;;;;;;;52.00;26.80;;;;;;;13.53;61.48;99750.03;5094579;28;20187;-56
2023/01/05 10:44:58;;;;;;;29.50;22.73;;;;;;;13.71;60.67;99738.09;5094296;28;20199;-56
2023/01/05 10:47:28;;;;;;;33.27;23.07;;;;;;;13.90;59.87;99740.00;5093960;28;20187;-56
2023/01/05 10:49:58;;;;;;;52.90;25.07;;;;;;;14.06;59.39;99734.06;5094303;28;20683;-57
2023/01/05 10:52:24;;;;;;;33.33;21.30;;;;;;;14.20;58.36;99732.44;5094484;28;20187;-56
2023/01/05 10:54:56;;;;;;;29.03;20.37;;;;;;;14.29;57.69;99723.81;5093969;28;20192;-56
2023/01/05 10:57:38;;;;;;;27.77;20.17;;;;;;;14.41;57.44;99724.81;5093853;28;20290;-57
2023/01/05 11:00:10;;;;;;;25.47;19.13;;;;;;;14.38;56.79;99729.94;5093772;28;20196;-57
2023/01/05 11:02:39;;;;;;;27.97;22.33;;;;;;;14.45;56.85;99728.28;5093281;28;20641;-56
2023/01/05 11:05:27;;;;;;;24.93;19.30;;;;;;;14.44;56.38;99713.59;5093980;28;20188;-56
2023/01/05 11:07:57;;;;;;;22.40;17.73;;;;;;;14.38;56.52;99709.28;5093541;28;20192;-57
2023/01/05 11:10:28;;;;;;;21.83;17.80;;;;;;;14.45;56.09;99699.84;5093640;28;20272;-56
2023/01/05 11:13:02;;;;;;;20.70;15.37;;;;;;;14.47;54.60;99698.97;5093128;28;20642;-57
2023/01/05 11:15:31;;;;;;;18.67;14.30;;;;;;;14.44;53.71;99693.78;5100042;28;20627;-58
2023/01/05 11:17:58;;;;;;;63.23;20.43;;;;;;;14.47;53.89;99688.63;5110718;28;20184;-57
2023/01/05 11:20:28;;;;;;;22.10;14.97;;;;;;;14.51;53.17;99690.34;5113217;28;20183;-56
2023/01/05 11:22:55;;;;;;;18.23;14.53;;;;;;;14.44;53.40;99680.88;5113172;28;20263;-56
2023/01/05 11:25:27;;;;;;;16.83;13.53;;;;;;;14.49;53.17;99683.47;5110377;28;20209;-56
2023/01/05 11:28:10;;;;;;;20.50;16.92;;;;;;;14.52;53.55;99681.75;5112580;28;20454;-57
2023/01/05 11:30:39;;;;;;;14.20;12.73;;;;;;;14.60;52.67;99663.66;5113520;28;20232;-56
2023/01/05 11:33:14;;;;;;;17.97;14.50;;;;;;;14.63;52.74;99668.84;5116736;27;20192;-57
2023/01/05 11:35:44;;;;;;;43.73;16.83;;;;;;;14.61;52.70;99671.41;5109886;27;20233;-56
2023/01/05 11:38:22;;;;;;;21.90;15.37;;;;;;;14.62;53.17;99656.78;5122031;27;20262;-56
2023/01/05 11:40:49;;;;;;;20.03;15.83;;;;;;;14.73;53.05;99648.19;5119819;27;20195;-57
2023/01/05 11:43:19;;;;;;;32.27;15.90;;;;;;;14.77;52.82;99649.94;5122024;27;20599;-57
2023/01/05 11:45:50;;;;;;;20.53;15.57;;;;;;;14.76;52.88;99650.78;5119325;27;20194;-57
2023/01/05 11:48:21;;;;;;;21.23;15.73;;;;;;;13.50;52.97;99435.09;5122178;27;20241;-57
2023/01/05 11:50:51;;;;;;;29.43;16.50;;;;;;;14.65;53.27;99651.59;5118102;27;20194;-57
2023/01/05 11:53:26;;;;;;;21.30;17.80;;;;;;;14.63;53.20;99643.88;5113153;28;20205;-57